Time;durP1;ratioP1;P1;durP2;ratioP2;P2;SDS_P1;SDS_P2;PMS_P1;PMS_P2;Temp;Humidity;BMP_temperature;BMP_pressure;BME280_temperature;BME280_humidity;BME280_pressure;Samples;Min_cycle;Max_cycle;Signal;HPM_P1;HPM_P2
2022/03/07 00:00:48;;;;;;;15.45;6.53;;;;;;;;;;5012870;28;20025;-67
2022/03/07 00:03:13;;;;;;;11.77;6.95;;;;;;;;;;5014712;28;20030;-67
2022/03/07 00:05:38;;;;;;;10.98;6.13;;;;;;;;;;5014614;28;20029;-67
2022/03/07 00:08:04;;;;;;;13.32;6.00;;;;;;;;;;5012962;28;20040;-66
2022/03/07 00:10:29;;;;;;;14.68;6.38;;;;;;;;;;5012992;28;20047;-67
2022/03/07 00:12:55;;;;;;;13.73;6.90;;;;;;;;;;5015182;28;20448;-67
2022/03/07 00:15:20;;;;;;;13.55;6.80;;;;;;;;;;5012683;28;20014;-67
2022/03/07 00:17:45;;;;;;;11.23;5.72;;;;;;;;;;5013602;28;20037;-67
2022/03/07 00:20:12;;;;;;;12.90;6.57;;;;;;;;;;5013248;28;20056;-67
2022/03/07 00:22:37;;;;;;;13.30;6.53;;;;;;;;;;5013978;28;20497;-67
2022/03/07 00:25:02;;;;;;;12.88;6.78;;;;;;;;;;5013157;28;20046;-67
2022/03/07 00:27:27;;;;;;;12.57;6.97;;;;;;;;;;5013030;28;20196;-67
2022/03/07 00:29:52;;;;;;;11.30;5.80;;;;;;;;;;5012317;28;20022;-67
2022/03/07 00:32:18;;;;;;;12.55;6.25;;;;;;;;;;5012650;28;20077;-67
2022/03/07 00:34:43;;;;;;;13.77;6.60;;;;;;;;;;5013031;28;20033;-67
2022/03/07 00:37:08;;;;;;;13.38;6.78;;;;;;;;;;5011836;28;20474;-67
2022/03/07 00:39:33;;;;;;;14.88;7.00;;;;;;;;;;5012878;28;20033;-67
2022/03/07 00:41:58;;;;;;;12.82;7.15;;;;;;;;;;5012561;28;20026;-67
2022/03/07 00:44:24;;;;;;;18.25;6.93;;;;;;;;;;5012118;28;20523;-67
2022/03/07 00:46:49;;;;;;;14.30;7.43;;;;;;;;;;5013212;28;20034;-67
2022/03/07 00:49:14;;;;;;;17.00;6.75;;;;;;;;;;5010432;28;20038;-67
2022/03/07 00:51:39;;;;;;;14.80;7.85;;;;;;;;;;5012435;28;20075;-67
2022/03/07 00:54:05;;;;;;;15.50;7.25;;;;;;;;;;5013071;28;20018;-67
2022/03/07 00:56:30;;;;;;;14.90;7.70;;;;;;;;;;5012595;28;20026;-67
2022/03/07 00:58:56;;;;;;;15.43;6.68;;;;;;;;;;5011166;28;20028;-67
2022/03/07 01:01:21;;;;;;;14.90;7.35;;;;;;;;;;5011993;28;20018;-67
2022/03/07 01:03:46;;;;;;;18.60;8.13;;;;;;;;;;5012323;28;20478;-67
2022/03/07 01:06:11;;;;;;;13.38;7.22;;;;;;;;;;5011532;28;20025;-67
2022/03/07 01:08:36;;;;;;;16.38;7.78;;;;;;;;;;5010987;28;20116;-67
2022/03/07 01:11:02;;;;;;;14.02;6.70;;;;;;;;;;5011812;28;20475;-67
2022/03/07 01:13:27;;;;;;;18.92;6.97;;;;;;;;;;5012504;28;20533;-67
2022/03/07 01:15:52;;;;;;;15.38;8.20;;;;;;;;;;5012444;28;20390;-67
2022/03/07 01:18:18;;;;;;;15.50;7.55;;;;;;;;;;5011778;28;20061;-67
2022/03/07 01:20:43;;;;;;;14.38;7.47;;;;;;;;;;5011991;28;20022;-67
2022/03/07 01:23:08;;;;;;;15.43;7.00;;;;;;;;;;5010777;28;20030;-67
2022/03/07 01:25:33;;;;;;;13.70;7.50;;;;;;;;;;5011677;28;20117;-67
2022/03/07 01:27:59;;;;;;;15.73;6.80;;;;;;;;;;5011357;28;20026;-67
2022/03/07 01:30:24;;;;;;;13.27;6.75;;;;;;;;;;5011751;28;20105;-67
2022/03/07 01:32:52;;;;;;;12.52;6.45;;;;;;;;;;5011467;28;20378;-67
2022/03/07 01:35:18;;;;;;;15.05;6.75;;;;;;;;;;5010416;28;20022;-67
2022/03/07 01:37:43;;;;;;;16.27;6.65;;;;;;;;;;5010873;28;20348;-67
2022/03/07 01:40:08;;;;;;;15.73;7.35;;;;;;;;;;5011195;28;20072;-67
2022/03/07 01:42:34;;;;;;;16.98;6.55;;;;;;;;;;5011164;28;20446;-67
2022/03/07 01:45:06;;;;;;;15.40;7.03;;;;;;;;;;5011681;28;20021;-67
2022/03/07 01:47:33;;;;;;;16.50;6.45;;;;;;;;;;5011112;28;20025;-67
2022/03/07 01:49:59;;;;;;;15.07;7.38;;;;;;;;;;5010568;28;20065;-67
2022/03/07 01:52:24;;;;;;;12.88;7.18;;;;;;;;;;5011104;28;20064;-67
2022/03/07 01:54:49;;;;;;;15.63;7.50;;;;;;;;;;5011412;28;20022;-67
2022/03/07 01:57:15;;;;;;;14.20;7.43;;;;;;;;;;5010854;28;20038;-67
2022/03/07 01:59:40;;;;;;;11.35;6.38;;;;;;;;;;5011106;28;20083;-67
2022/03/07 02:02:05;;;;;;;14.70;7.35;;;;;;;;;;5010628;28;20105;-67
2022/03/07 02:04:30;;;;;;;12.85;6.80;;;;;;;;;;5010286;28;20030;-67
2022/03/07 02:06:56;;;;;;;14.88;7.30;;;;;;;;;;5011156;28;20042;-67
2022/03/07 02:09:21;;;;;;;11.68;6.30;;;;;;;;;;5008263;28;20699;-67
2022/03/07 02:11:46;;;;;;;15.05;7.63;;;;;;;;;;5010865;28;20045;-67
2022/03/07 02:14:14;;;;;;;13.32;6.82;;;;;;;;;;5011037;28;20382;-67
2022/03/07 02:16:40;;;;;;;13.63;6.95;;;;;;;;;;5011318;28;20029;-67
2022/03/07 02:19:05;;;;;;;14.93;7.10;;;;;;;;;;5009138;28;20031;-67
2022/03/07 02:21:32;;;;;;;14.10;6.35;;;;;;;;;;5010764;28;20501;-67
2022/03/07 02:23:57;;;;;;;10.95;6.25;;;;;;;;;;5010590;28;20038;-67
2022/03/07 02:26:22;;;;;;;14.82;7.00;;;;;;;;;;5010748;28;20041;-67
2022/03/07 02:28:47;;;;;;;17.13;7.40;;;;;;;;;;5009232;28;20100;-67
2022/03/07 02:31:16;;;;;;;17.20;7.50;;;;;;;;;;5010010;28;20133;-67
2022/03/07 02:33:41;;;;;;;13.75;7.00;;;;;;;;;;5010699;28;20060;-67
2022/03/07 02:36:06;;;;;;;12.63;6.25;;;;;;;;;;5010242;28;20109;-67
2022/03/07 02:38:32;;;;;;;12.93;7.10;;;;;;;;;;5010798;28;20165;-67
2022/03/07 02:40:57;;;;;;;14.90;6.18;;;;;;;;;;5009841;28;20030;-67
2022/03/07 02:43:22;;;;;;;13.75;6.90;;;;;;;;;;5011161;28;20099;-67
2022/03/07 02:45:47;;;;;;;12.13;6.47;;;;;;;;;;5009868;28;20028;-67
2022/03/07 02:48:13;;;;;;;13.18;7.07;;;;;;;;;;5010135;28;20513;-67
2022/03/07 02:50:38;;;;;;;13.23;6.60;;;;;;;;;;5010087;28;20068;-67
2022/03/07 02:53:03;;;;;;;12.95;6.50;;;;;;;;;;5010163;28;20378;-67
2022/03/07 02:55:29;;;;;;;12.13;6.60;;;;;;;;;;5010849;28;20525;-67
2022/03/07 02:57:54;;;;;;;10.90;7.15;;;;;;;;;;5009882;28;20061;-67
2022/03/07 03:00:19;;;;;;;16.77;6.95;;;;;;;;;;5008856;28;20385;-67
2022/03/07 03:02:44;;;;;;;12.48;6.25;;;;;;;;;;5009345;28;20470;-67
2022/03/07 03:05:10;;;;;;;15.13;6.47;;;;;;;;;;5008608;28;20021;-67
2022/03/07 03:07:35;;;;;;;12.68;6.65;;;;;;;;;;5010585;28;20241;-67
2022/03/07 03:10:00;;;;;;;13.15;6.78;;;;;;;;;;5009330;28;20018;-67
2022/03/07 03:12:26;;;;;;;14.35;6.22;;;;;;;;;;5008988;28;20149;-67
2022/03/07 03:14:51;;;;;;;13.40;6.63;;;;;;;;;;5010570;28;20056;-67
2022/03/07 03:17:17;;;;;;;12.00;6.18;;;;;;;;;;5010282;28;20033;-67
2022/03/07 03:19:42;;;;;;;14.07;7.13;;;;;;;;;;5009040;28;20029;-67
2022/03/07 03:22:07;;;;;;;12.95;6.47;;;;;;;;;;5009887;28;20033;-67
2022/03/07 03:24:32;;;;;;;15.55;7.57;;;;;;;;;;5010067;28;20026;-67
2022/03/07 03:26:57;;;;;;;12.38;6.47;;;;;;;;;;5009839;28;20026;-67
2022/03/07 03:29:23;;;;;;;11.27;5.93;;;;;;;;;;5009651;28;20030;-67
2022/03/07 03:31:48;;;;;;;10.52;6.07;;;;;;;;;;5009554;28;20145;-67
2022/03/07 03:34:13;;;;;;;15.15;6.15;;;;;;;;;;5008152;28;20036;-67
2022/03/07 03:36:38;;;;;;;14.32;6.60;;;;;;;;;;5009850;28;20050;-67
2022/03/07 03:39:04;;;;;;;13.95;6.93;;;;;;;;;;5008296;28;20121;-67
2022/03/07 03:41:29;;;;;;;13.02;5.82;;;;;;;;;;5008957;28;20018;-67
2022/03/07 03:43:54;;;;;;;11.07;6.18;;;;;;;;;;5009586;28;20017;-67
2022/03/07 03:46:19;;;;;;;13.95;6.30;;;;;;;;;;5007591;28;20026;-67
2022/03/07 03:48:44;;;;;;;12.52;6.88;;;;;;;;;;5009144;28;20117;-67
2022/03/07 03:51:10;;;;;;;12.13;6.68;;;;;;;;;;5009175;28;20057;-67
2022/03/07 03:53:35;;;;;;;21.02;7.03;;;;;;;;;;5008315;28;20113;-67
2022/03/07 03:56:00;;;;;;;12.57;6.45;;;;;;;;;;5009192;28;20025;-67
2022/03/07 03:58:25;;;;;;;15.77;6.55;;;;;;;;;;5009454;28;20022;-67
2022/03/07 04:00:50;;;;;;;15.10;7.40;;;;;;;;;;5008882;28;20026;-67
2022/03/07 04:03:15;;;;;;;11.95;6.57;;;;;;;;;;5009228;28;20069;-67
2022/03/07 04:05:41;;;;;;;14.05;7.15;;;;;;;;;;5009309;28;20021;-67
2022/03/07 04:08:06;;;;;;;12.95;6.40;;;;;;;;;;5009070;28;20521;-67
2022/03/07 04:10:31;;;;;;;14.23;6.97;;;;;;;;;;5004828;28;20084;-67
2022/03/07 04:12:56;;;;;;;16.90;7.22;;;;;;;;;;5006886;28;20109;-67
2022/03/07 04:15:22;;;;;;;12.98;6.68;;;;;;;;;;5013197;28;20034;-67
2022/03/07 04:17:47;;;;;;;15.43;6.90;;;;;;;;;;5013779;28;20022;-67
2022/03/07 04:20:13;;;;;;;15.15;7.07;;;;;;;;;;5012679;28;20075;-67
2022/03/07 04:22:38;;;;;;;16.73;7.38;;;;;;;;;;5013539;28;20049;-67
2022/03/07 04:25:05;;;;;;;14.18;7.68;;;;;;;;;;5013121;28;20447;-67
2022/03/07 04:27:30;;;;;;;12.93;7.07;;;;;;;;;;5013037;28;20156;-67
2022/03/07 04:29:57;;;;;;;12.93;6.30;;;;;;;;;;5012294;28;20108;-67
2022/03/07 04:32:22;;;;;;;14.27;6.75;;;;;;;;;;5015223;28;20033;-67
2022/03/07 04:34:47;;;;;;;13.50;7.25;;;;;;;;;;5013130;28;20018;-67
2022/03/07 04:37:13;;;;;;;16.45;7.32;;;;;;;;;;5013134;28;20072;-67
2022/03/07 04:39:38;;;;;;;16.92;6.90;;;;;;;;;;5012545;28;20024;-67
2022/03/07 04:42:03;;;;;;;16.10;7.93;;;;;;;;;;5013053;28;20025;-67
2022/03/07 04:44:28;;;;;;;14.23;7.45;;;;;;;;;;5011689;28;20032;-67
2022/03/07 04:46:53;;;;;;;17.20;7.82;;;;;;;;;;5012784;28;20143;-67
2022/03/07 04:49:19;;;;;;;18.23;7.50;;;;;;;;;;5012249;28;20519;-66
2022/03/07 04:51:45;;;;;;;15.52;7.05;;;;;;;;;;5012589;28;20026;-67
2022/03/07 04:54:10;;;;;;;15.57;7.75;;;;;;;;;;5012026;28;20496;-66
2022/03/07 04:56:37;;;;;;;14.90;7.35;;;;;;;;;;5012364;28;20025;-67
2022/03/07 04:59:02;;;;;;;15.65;6.43;;;;;;;;;;5010891;28;20475;-66
2022/03/07 05:01:27;;;;;;;14.68;7.10;;;;;;;;;;5012285;28;20026;-66
2022/03/07 05:03:52;;;;;;;12.25;6.75;;;;;;;;;;5011922;28;20018;-66
2022/03/07 05:06:17;;;;;;;18.48;7.50;;;;;;;;;;5012863;28;20025;-66
2022/03/07 05:08:43;;;;;;;17.02;7.10;;;;;;;;;;5012292;28;20087;-66
2022/03/07 05:11:08;;;;;;;16.58;7.38;;;;;;;;;;5011316;28;20067;-65
2022/03/07 05:13:33;;;;;;;15.15;7.22;;;;;;;;;;5012955;28;20018;-66
2022/03/07 05:15:58;;;;;;;15.48;7.32;;;;;;;;;;5011805;28;20394;-67
2022/03/07 05:18:24;;;;;;;13.20;6.78;;;;;;;;;;5012070;28;20354;-66
2022/03/07 05:20:49;;;;;;;17.50;6.93;;;;;;;;;;5012229;28;20036;-66
2022/03/07 05:23:14;;;;;;;14.38;7.32;;;;;;;;;;5010733;28;20022;-66
2022/03/07 05:25:39;;;;;;;14.50;7.90;;;;;;;;;;5011588;28;20031;-66
2022/03/07 05:28:04;;;;;;;17.05;6.75;;;;;;;;;;5011438;28;20050;-66
2022/03/07 05:30:30;;;;;;;15.85;6.85;;;;;;;;;;5008603;28;20422;-66
2022/03/07 05:32:55;;;;;;;18.95;7.47;;;;;;;;;;5004085;28;20034;-66
2022/03/07 05:35:21;;;;;;;15.27;7.60;;;;;;;;;;5008534;28;20327;-66
2022/03/07 05:37:47;;;;;;;16.73;8.10;;;;;;;;;;5007171;28;20026;-66
2022/03/07 05:40:13;;;;;;;14.65;6.40;;;;;;;;;;5011388;28;20071;-66
2022/03/07 05:42:38;;;;;;;15.55;7.57;;;;;;;;;;5010173;28;20026;-66
2022/03/07 05:45:04;;;;;;;15.43;7.03;;;;;;;;;;5011480;28;20101;-66
2022/03/07 05:47:30;;;;;;;15.63;7.63;;;;;;;;;;5011022;28;20080;-66
2022/03/07 05:49:55;;;;;;;17.73;7.97;;;;;;;;;;5011047;28;20026;-67
2022/03/07 05:52:20;;;;;;;15.40;7.88;;;;;;;;;;5011296;28;20022;-66
2022/03/07 05:54:45;;;;;;;14.35;7.45;;;;;;;;;;5010963;28;20018;-66
2022/03/07 05:57:11;;;;;;;17.73;7.50;;;;;;;;;;5009523;28;20171;-66
2022/03/07 05:59:36;;;;;;;14.63;7.45;;;;;;;;;;5010687;28;20029;-65
2022/03/07 06:02:01;;;;;;;14.43;7.28;;;;;;;;;;5010953;28;20041;-65
2022/03/07 06:04:26;;;;;;;23.90;7.32;;;;;;;;;;5011375;28;20030;-66
2022/03/07 06:06:52;;;;;;;16.00;7.90;;;;;;;;;;5011423;28;20022;-66
2022/03/07 06:09:17;;;;;;;14.43;6.97;;;;;;;;;;5009855;28;20025;-66
2022/03/07 06:11:42;;;;;;;16.60;7.75;;;;;;;;;;5010391;28;20033;-67
2022/03/07 06:14:08;;;;;;;15.25;7.85;;;;;;;;;;5014948;28;20010;-66
2022/03/07 06:16:33;;;;;;;15.98;6.65;;;;;;;;;;5010741;28;20120;-67
2022/03/07 06:18:58;;;;;;;23.98;7.05;;;;;;;;;;5008483;28;20125;-67
2022/03/07 06:21:23;;;;;;;17.90;7.57;;;;;;;;;;5008027;28;20029;-67
2022/03/07 06:23:48;;;;;;;20.13;7.82;;;;;;;;;;5008557;28;20030;-66
2022/03/07 06:26:14;;;;;;;15.65;7.38;;;;;;;;;;5008398;28;20504;-67
2022/03/07 06:28:39;;;;;;;15.70;8.43;;;;;;;;;;5007777;28;20112;-67
2022/03/07 06:31:04;;;;;;;19.35;8.05;;;;;;;;;;5008211;28;20014;-66
2022/03/07 06:33:29;;;;;;;12.82;6.80;;;;;;;;;;5005713;28;20051;-66
2022/03/07 06:35:54;;;;;;;22.48;7.28;;;;;;;;;;4999190;28;20517;-66
2022/03/07 06:38:21;;;;;;;18.35;8.25;;;;;;;;;;5005635;28;20037;-66
2022/03/07 06:40:46;;;;;;;15.40;7.45;;;;;;;;;;5003493;28;20026;-66
2022/03/07 06:43:11;;;;;;;16.02;8.13;;;;;;;;;;5001732;28;20037;-66
2022/03/07 06:45:36;;;;;;;13.55;7.50;;;;;;;;;;5003277;28;20060;-66
2022/03/07 06:48:02;;;;;;;18.95;7.85;;;;;;;;;;5007652;28;20022;-66
2022/03/07 06:50:27;;;;;;;16.95;7.97;;;;;;;;;;5004801;28;20609;-67
2022/03/07 06:52:52;;;;;;;13.68;6.90;;;;;;;;;;5008843;28;20025;-67
2022/03/07 06:55:18;;;;;;;18.38;7.63;;;;;;;;;;5008501;28;20014;-66
2022/03/07 06:57:43;;;;;;;12.88;7.97;;;;;;;;;;5005537;28;20021;-67
2022/03/07 07:00:09;;;;;;;13.55;6.78;;;;;;;;;;5009536;28;20033;-67
2022/03/07 07:02:35;;;;;;;15.05;6.65;;;;;;;;;;5010706;28;20040;-67
2022/03/07 07:05:02;;;;;;;11.40;6.70;;;;;;;;;;5010455;28;20466;-67
2022/03/07 07:07:27;;;;;;;13.13;6.60;;;;;;;;;;5010474;28;20421;-67
2022/03/07 07:09:53;;;;;;;13.38;6.95;;;;;;;;;;5009698;28;20022;-67
2022/03/07 07:12:18;;;;;;;14.80;6.45;;;;;;;;;;5010381;28;20045;-67
2022/03/07 07:14:43;;;;;;;9.93;5.55;;;;;;;;;;5010025;28;20104;-67
2022/03/07 07:17:08;;;;;;;15.32;6.20;;;;;;;;;;5010162;28;20378;-68
2022/03/07 07:19:33;;;;;;;9.55;5.68;;;;;;;;;;5008713;28;20022;-68
2022/03/07 07:21:59;;;;;;;12.02;5.95;;;;;;;;;;5006477;28;20037;-68
2022/03/07 07:24:24;;;;;;;13.82;6.43;;;;;;;;;;5008182;28;20579;-68
2022/03/07 07:26:49;;;;;;;9.45;5.30;;;;;;;;;;5004922;28;20474;-68
2022/03/07 07:29:14;;;;;;;9.77;5.65;;;;;;;;;;5003743;28;20029;-68
2022/03/07 07:31:39;;;;;;;10.65;5.68;;;;;;;;;;5009763;28;20026;-68
2022/03/07 07:34:05;;;;;;;16.95;5.93;;;;;;;;;;5008877;28;20029;-67
2022/03/07 07:36:30;;;;;;;19.67;6.47;;;;;;;;;;5015482;28;20448;-68
2022/03/07 07:38:55;;;;;;;16.77;6.63;;;;;;;;;;5011826;28;20030;-68
2022/03/07 07:41:21;;;;;;;13.60;6.95;;;;;;;;;;5009678;28;20026;-68
2022/03/07 07:43:49;;;;;;;11.10;6.07;;;;;;;;;;5009623;28;20108;-68
2022/03/07 07:46:14;;;;;;;9.95;5.53;;;;;;;;;;5010686;28;20124;-68
2022/03/07 07:48:39;;;;;;;11.33;6.03;;;;;;;;;;5012376;28;20132;-68
2022/03/07 07:51:04;;;;;;;19.08;5.95;;;;;;;;;;5005911;28;20284;-68
2022/03/07 07:53:29;;;;;;;7.37;4.83;;;;;;;;;;5006577;28;20490;-69
2022/03/07 07:55:55;;;;;;;8.15;5.00;;;;;;;;;;5008899;28;20308;-69
2022/03/07 07:58:20;;;;;;;9.77;4.77;;;;;;;;;;5010199;28;20074;-69
2022/03/07 08:00:45;;;;;;;8.15;4.55;;;;;;;;;;5008860;28;20334;-69
2022/03/07 08:03:10;;;;;;;9.80;4.20;;;;;;;;;;5013160;28;20140;-69
2022/03/07 08:05:35;;;;;;;7.55;4.20;;;;;;;;;;5011610;28;20721;-69
2022/03/07 08:08:02;;;;;;;6.07;3.60;;;;;;;;;;5011770;28;20532;-70
2022/03/07 08:10:27;;;;;;;6.25;3.58;;;;;;;;;;5012018;28;20620;-68
2022/03/07 08:12:52;;;;;;;5.57;3.25;;;;;;;;;;5010140;28;20096;-69
2022/03/07 08:15:17;;;;;;;5.33;3.50;;;;;;;;;;5012465;28;20564;-69
2022/03/07 08:17:49;;;;;;;5.10;3.45;;;;;;;;;;5010808;28;20407;-69
2022/03/07 08:20:15;;;;;;;5.00;3.25;;;;;;;;;;5006334;28;20026;-69
2022/03/07 08:22:40;;;;;;;5.03;3.42;;;;;;;;;;5011006;28;20534;-69
2022/03/07 08:25:06;;;;;;;3.47;2.97;;;;;;;;;;5011436;28;20457;-69
2022/03/07 08:27:34;;;;;;;5.47;3.08;;;;;;;;;;5009238;28;20038;-69
2022/03/07 08:29:59;;;;;;;5.03;2.75;;;;;;;;;;5007509;28;20056;-69
2022/03/07 08:32:24;;;;;;;5.90;3.10;;;;;;;;;;5010531;28;20026;-69
2022/03/07 08:34:49;;;;;;;4.90;2.97;;;;;;;;;;5011433;28;20081;-70
2022/03/07 08:37:15;;;;;;;4.10;2.57;;;;;;;;;;5010728;28;20297;-70
2022/03/07 08:39:40;;;;;;;5.13;3.25;;;;;;;;;;5009382;28;20288;-70
2022/03/07 08:42:05;;;;;;;3.67;2.88;;;;;;;;;;5012061;28;20022;-69
2022/03/07 08:44:31;;;;;;;3.50;2.75;;;;;;;;;;5004633;28;20032;-70
2022/03/07 08:46:56;;;;;;;6.10;3.03;;;;;;;;;;5010386;28;20032;-70
2022/03/07 08:49:21;;;;;;;4.47;2.50;;;;;;;;;;5006197;28;20026;-70
2022/03/07 08:51:46;;;;;;;3.37;2.57;;;;;;;;;;5010391;28;20273;-70
2022/03/07 08:54:11;;;;;;;13.13;3.20;;;;;;;;;;5009743;28;20354;-70
2022/03/07 08:56:37;;;;;;;6.13;2.95;;;;;;;;;;5009029;28;20113;-70
2022/03/07 08:59:02;;;;;;;5.63;3.00;;;;;;;;;;5007954;28;20104;-70
2022/03/07 09:01:27;;;;;;;2.58;2.25;;;;;;;;;;5008093;28;20025;-69
2022/03/07 09:03:52;;;;;;;7.65;2.80;;;;;;;;;;5011100;28;20022;-69
2022/03/07 09:06:18;;;;;;;4.03;2.60;;;;;;;;;;5010328;28;20068;-69
2022/03/07 09:08:43;;;;;;;10.68;2.58;;;;;;;;;;5010448;28;20022;-69
2022/03/07 09:11:08;;;;;;;6.30;3.13;;;;;;;;;;5009908;28;20084;-69
2022/03/07 09:13:33;;;;;;;6.73;3.60;;;;;;;;;;5011101;28;20105;-69
2022/03/07 09:15:58;;;;;;;7.50;3.50;;;;;;;;;;5009782;28;20269;-69
2022/03/07 09:18:26;;;;;;;3.80;2.90;;;;;;;;;;5009108;28;20277;-69
2022/03/07 09:20:51;;;;;;;5.63;2.67;;;;;;;;;;5009165;28;20297;-70
2022/03/07 09:23:16;;;;;;;7.15;2.60;;;;;;;;;;5010676;28;20062;-69
2022/03/07 09:25:41;;;;;;;3.22;2.00;;;;;;;;;;5009716;28;20030;-69
2022/03/07 09:28:06;;;;;;;2.60;1.60;;;;;;;;;;5009390;28;20033;-69
2022/03/07 09:30:32;;;;;;;4.15;1.75;;;;;;;;;;5010056;28;20361;-69
2022/03/07 09:32:58;;;;;;;3.58;1.95;;;;;;;;;;5008071;28;20367;-70
2022/03/07 09:35:23;;;;;;;5.25;2.38;;;;;;;;;;5006362;28;20030;-70
2022/03/07 09:37:48;;;;;;;6.07;3.33;;;;;;;;;;5007578;28;20022;-69
2022/03/07 09:40:14;;;;;;;5.60;2.80;;;;;;;;;;5009069;28;20402;-69
2022/03/07 09:42:39;;;;;;;3.50;1.85;;;;;;;;;;5006051;28;20156;-69
2022/03/07 09:45:04;;;;;;;5.57;3.30;;;;;;;;;;5001483;28;20034;-70
2022/03/07 09:47:30;;;;;;;5.88;3.15;;;;;;;;;;5011029;28;20025;-69
2022/03/07 09:49:55;;;;;;;5.55;2.85;;;;;;;;;;5009587;28;20076;-69
2022/03/07 09:52:21;;;;;;;5.22;2.90;;;;;;;;;;5009853;28;20112;-69
2022/03/07 09:54:46;;;;;;;2.65;1.77;;;;;;;;;;5011566;28;20022;-69
2022/03/07 09:57:11;;;;;;;6.32;2.95;;;;;;;;;;5007700;28;20483;-69
2022/03/07 09:59:36;;;;;;;4.85;2.33;;;;;;;;;;5010636;28;20494;-69
2022/03/07 10:02:07;;;;;;;2.63;1.73;;;;;;;;;;5010018;28;20022;-69
2022/03/07 10:04:41;;;;;;;5.03;1.80;;;;;;;;;;5010980;28;20025;-69
2022/03/07 10:07:07;;;;;;;5.25;2.95;;;;;;;;;;5006900;28;20030;-70
2022/03/07 10:09:32;;;;;;;6.55;2.95;;;;;;;;;;5010007;28;20521;-69
2022/03/07 10:12:03;;;;;;;9.43;3.07;;;;;;;;;;5007089;28;20487;-70
2022/03/07 10:14:31;;;;;;;5.97;3.60;;;;;;;;;;5010880;28;20677;-69
2022/03/07 10:16:57;;;;;;;4.70;2.67;;;;;;;;;;5010539;28;20047;-69
2022/03/07 10:19:22;;;;;;;4.28;2.83;;;;;;;;;;5010618;28;20014;-70
2022/03/07 10:21:48;;;;;;;7.30;2.97;;;;;;;;;;5010969;28;20080;-69
2022/03/07 10:24:14;;;;;;;6.28;3.10;;;;;;;;;;5009782;28;20450;-70
2022/03/07 10:26:39;;;;;;;5.18;2.53;;;;;;;;;;5007910;28;20018;-69
2022/03/07 10:29:05;;;;;;;10.65;3.30;;;;;;;;;;5008569;28;20037;-69
2022/03/07 10:31:30;;;;;;;7.10;2.95;;;;;;;;;;5010208;28;20025;-70
2022/03/07 10:34:06;;;;;;;5.18;2.40;;;;;;;;;;5009290;28;20485;-69
2022/03/07 10:36:35;;;;;;;7.78;2.30;;;;;;;;;;5009037;28;20026;-69
2022/03/07 10:39:00;;;;;;;5.80;2.97;;;;;;;;;;5010641;28;20076;-70
2022/03/07 10:41:51;;;;;;;5.40;3.58;;;;;;;;;;5009773;28;20033;-70
2022/03/07 10:44:25;;;;;;;3.45;2.25;;;;;;;;;;5002479;28;20122;-70
2022/03/07 10:46:51;;;;;;;5.03;2.22;;;;;;;;;;5008278;28;20025;-69
2022/03/07 10:49:17;;;;;;;6.47;2.80;;;;;;;;;;5009419;28;20478;-69
2022/03/07 10:51:52;;;;;;;4.55;2.70;;;;;;;;;;5009052;28;20402;-69
2022/03/07 10:54:18;;;;;;;6.88;2.85;;;;;;;;;;5005405;28;20017;-69
2022/03/07 10:56:50;;;;;;;4.50;2.95;;;;;;;;;;5008735;28;20029;-69
2022/03/07 10:59:24;;;;;;;1.50;1.10;;;;;;;;;;5007979;28;20463;-69
2022/03/07 11:01:57;;;;;;;5.35;2.75;;;;;;;;;;5008420;28;20117;-69
2022/03/07 11:04:22;;;;;;;6.03;2.72;;;;;;;;;;5007781;28;20018;-69
2022/03/07 11:06:47;;;;;;;5.90;2.63;;;;;;;;;;5007098;28;20040;-69
2022/03/07 11:09:12;;;;;;;1.90;1.38;;;;;;;;;;5010064;28;20277;-69
2022/03/07 11:11:38;;;;;;;4.87;2.70;;;;;;;;;;5008053;28;20509;-69
2022/03/07 11:14:03;;;;;;;3.83;1.98;;;;;;;;;;5010572;28;20261;-69
2022/03/07 11:16:29;;;;;;;5.30;2.67;;;;;;;;;;5007163;28;20485;-69
2022/03/07 11:18:55;;;;;;;5.80;2.90;;;;;;;;;;5008688;28;20501;-70
2022/03/07 11:21:21;;;;;;;4.60;2.83;;;;;;;;;;5010096;28;20030;-70
2022/03/07 11:23:46;;;;;;;8.45;2.53;;;;;;;;;;5012858;28;20026;-70
2022/03/07 11:26:12;;;;;;;5.43;2.90;;;;;;;;;;5013067;28;20034;-70
2022/03/07 11:28:37;;;;;;;4.22;2.53;;;;;;;;;;5011133;28;20033;-70
2022/03/07 11:31:02;;;;;;;1.70;0.93;;;;;;;;;;5012083;28;20030;-69
2022/03/07 11:33:34;;;;;;;5.28;2.60;;;;;;;;;;5008405;28;20014;-69
2022/03/07 11:36:00;;;;;;;5.18;2.55;;;;;;;;;;5006323;28;20437;-70
2022/03/07 11:38:32;;;;;;;9.63;2.80;;;;;;;;;;5006551;28;20471;-69
2022/03/07 11:41:12;;;;;;;5.07;2.72;;;;;;;;;;5004755;28;20496;-70
2022/03/07 11:43:53;;;;;;;4.20;2.47;;;;;;;;;;5010044;28;20076;-69
2022/03/07 11:46:18;;;;;;;;;;;;;;;;;;5007861;28;20037;-70
2022/03/07 11:48:44;;;;;;;4.25;2.28;;;;;;;;;;5012443;28;19913;-70
2022/03/07 11:51:17;;;;;;;3.30;2.40;;;;;;;;;;5010535;28;20079;-70
2022/03/07 11:53:43;;;;;;;4.22;2.28;;;;;;;;;;5012033;28;20505;-69
2022/03/07 11:56:14;;;;;;;13.13;5.35;;;;;;;;;;5006830;28;20103;-70
2022/03/07 11:58:44;;;;;;;7.90;2.72;;;;;;;;;;5012399;28;20045;-70
2022/03/07 12:01:11;;;;;;;5.85;3.83;;;;;;;;;;5010550;28;20033;-70
2022/03/07 12:03:37;;;;;;;4.20;2.40;;;;;;;;;;5013047;28;20184;-70
2022/03/07 12:06:05;;;;;;;5.75;2.28;;;;;;;;;;5010501;28;20104;-69
2022/03/07 12:08:40;;;;;;;4.85;2.53;;;;;;;;;;5010145;28;20068;-70
2022/03/07 12:11:07;;;;;;;6.63;2.78;;;;;;;;;;5008662;28;20026;-70
2022/03/07 12:13:34;;;;;;;3.65;2.05;;;;;;;;;;5012842;28;20025;-70
2022/03/07 12:15:59;;;;;;;4.35;2.22;;;;;;;;;;5009597;28;20109;-70
2022/03/07 12:18:26;;;;;;;3.97;2.47;;;;;;;;;;5010574;28;20084;-69
2022/03/07 12:20:55;;;;;;;9.32;2.85;;;;;;;;;;5011672;28;20030;-69
2022/03/07 12:23:21;;;;;;;4.50;2.33;;;;;;;;;;5005241;28;20095;-69
2022/03/07 12:25:47;;;;;;;6.40;2.58;;;;;;;;;;5011230;28;20073;-69
2022/03/07 12:28:13;;;;;;;7.15;2.03;;;;;;;;;;5010582;28;20067;-69
2022/03/07 12:30:38;;;;;;;7.78;3.63;;;;;;;;;;5010896;28;20470;-69
2022/03/07 12:33:07;;;;;;;4.25;1.83;;;;;;;;;;5011838;28;20037;-69
2022/03/07 12:35:32;;;;;;;4.15;2.22;;;;;;;;;;5009270;28;20034;-69
2022/03/07 12:37:57;;;;;;;2.30;2.00;;;;;;;;;;5010712;28;20033;-69
2022/03/07 12:40:23;;;;;;;2.08;1.45;;;;;;;;;;5008879;28;20030;-69
2022/03/07 12:42:48;;;;;;;7.25;2.20;;;;;;;;;;5010883;28;20394;-69
2022/03/07 12:45:16;;;;;;;3.63;1.93;;;;;;;;;;5011092;28;20101;-69
2022/03/07 12:47:43;;;;;;;2.28;1.63;;;;;;;;;;5011193;28;20277;-69
2022/03/07 12:50:10;;;;;;;3.80;1.90;;;;;;;;;;5010578;28;20037;-69
2022/03/07 12:52:36;;;;;;;6.63;1.83;;;;;;;;;;5010167;28;20021;-69
2022/03/07 12:55:05;;;;;;;2.45;1.90;;;;;;;;;;5012118;28;20022;-69
2022/03/07 12:57:30;;;;;;;5.35;2.38;;;;;;;;;;5012187;28;20022;-69
2022/03/07 13:00:00;;;;;;;2.75;1.40;;;;;;;;;;5012095;28;20022;-69
2022/03/07 13:02:36;;;;;;;3.08;1.98;;;;;;;;;;5009605;28;20561;-69
2022/03/07 13:05:01;;;;;;;14.82;6.15;;;;;;;;;;5010168;28;20113;-69
2022/03/07 13:07:26;;;;;;;4.68;2.10;;;;;;;;;;5009479;28;20108;-69
2022/03/07 13:09:52;;;;;;;2.70;1.65;;;;;;;;;;5011163;28;20026;-69
2022/03/07 13:12:17;;;;;;;4.63;1.60;;;;;;;;;;5006698;28;20093;-69
2022/03/07 13:14:42;;;;;;;5.85;2.00;;;;;;;;;;5009105;28;20108;-69
2022/03/07 13:17:10;;;;;;;6.73;1.97;;;;;;;;;;5010649;28;20029;-69
2022/03/07 13:19:36;;;;;;;4.18;2.15;;;;;;;;;;5010215;28;20280;-69
2022/03/07 13:22:01;;;;;;;4.15;2.42;;;;;;;;;;5008969;28;20475;-69
2022/03/07 13:24:26;;;;;;;3.83;2.35;;;;;;;;;;5009078;28;20076;-69
2022/03/07 13:26:55;;;;;;;3.65;1.80;;;;;;;;;;5009002;28;20494;-69
2022/03/07 13:29:22;;;;;;;3.25;1.65;;;;;;;;;;5009969;28;20018;-69
2022/03/07 13:31:48;;;;;;;3.53;1.80;;;;;;;;;;5011341;28;20010;-69
2022/03/07 13:34:15;;;;;;;1.98;1.25;;;;;;;;;;5008438;28;20483;-69
2022/03/07 13:36:41;;;;;;;6.10;2.42;;;;;;;;;;5009958;28;20467;-69
2022/03/07 13:39:26;;;;;;;2.00;1.25;;;;;;;;;;5008152;28;20156;-69
2022/03/07 13:41:51;;;;;;;3.40;1.58;;;;;;;;;;5007674;28;20426;-69
2022/03/07 13:44:17;;;;;;;3.83;1.70;;;;;;;;;;5004346;28;20039;-69
2022/03/07 13:46:56;;;;;;;4.60;1.88;;;;;;;;;;5010745;28;20087;-69
2022/03/07 13:49:23;;;;;;;4.63;1.70;;;;;;;;;;5008861;28;20422;-69
2022/03/07 13:51:48;;;;;;;2.28;1.42;;;;;;;;;;5008447;28;20112;-69
2022/03/07 13:54:14;;;;;;;4.05;1.33;;;;;;;;;;5010763;28;20026;-69
2022/03/07 13:56:39;;;;;;;3.30;1.60;;;;;;;;;;5010756;28;20079;-69
2022/03/07 13:59:14;;;;;;;3.60;2.00;;;;;;;;;;5010792;28;20127;-69
2022/03/07 14:01:39;;;;;;;3.22;2.40;;;;;;;;;;5007998;28;20367;-69
2022/03/07 14:04:15;;;;;;;3.30;1.92;;;;;;;;;;5007544;28;20102;-69
2022/03/07 14:06:44;;;;;;;4.30;1.88;;;;;;;;;;5010450;28;20539;-69
2022/03/07 14:09:12;;;;;;;2.60;1.80;;;;;;;;;;5009484;28;20095;-69
2022/03/07 14:11:38;;;;;;;3.25;1.60;;;;;;;;;;5007035;28;20371;-69
2022/03/07 14:14:04;;;;;;;8.57;2.13;;;;;;;;;;5008819;28;20612;-69
2022/03/07 14:16:39;;;;;;;3.40;1.42;;;;;;;;;;5009548;28;20087;-69
2022/03/07 14:19:04;;;;;;;3.85;1.13;;;;;;;;;;5008451;28;20022;-69
2022/03/07 14:21:31;;;;;;;3.33;1.63;;;;;;;;;;5006593;28;20045;-69
2022/03/07 14:23:57;;;;;;;2.85;1.13;;;;;;;;;;5010595;28;20091;-69
2022/03/07 14:26:22;;;;;;;2.65;1.80;;;;;;;;;;5009930;28;20526;-69
2022/03/07 14:28:47;;;;;;;5.95;1.77;;;;;;;;;;5011814;28;20470;-69